Terminal Aerodrome Forecast
Issued by NWS

Home | Current Version | Previous Version | Text Only | Print | Product List | Glossary On
Versions: 1 2 3 4 5 6 7 8 9 10 11 12 13 14 15 16 17 18 19 20 21 22 23 24
000
FTUS45 KFGZ 200900 AAA
TAFSEZ
TAF AMD
KSEZ 200924Z 2009/2106 VRB05KT P6SM SCT014 SCT110
      TEMPO 2010/2013 P6SM BKN012 OVC045
     FM201300 VRB05KT P6SM FEW015 SCT080
     FM202000 24008KT P6SM VCTS BKN080CB=

USA.gov is the U.S. government's official web portal to all federal, state and local government web resources and services.